sensor_id;sensor_type;location;lat;lon;timestamp;P1;durP1;ratioP1;P2;durP2;ratioP2
59294;SDS011;45067;44.654;20.200;2023-09-30T00:01:49;25.13;;;12.00;;
59294;SDS011;45067;44.654;20.200;2023-09-30T00:04:17;22.27;;;11.95;;
59294;SDS011;45067;44.654;20.200;2023-09-30T00:06:43;20.38;;;11.73;;
59294;SDS011;45067;44.654;20.200;2023-09-30T00:09:09;25.70;;;13.05;;
59294;SDS011;45067;44.654;20.200;2023-09-30T00:11:36;21.35;;;12.15;;
59294;SDS011;45067;44.654;20.200;2023-09-30T00:14:03;21.63;;;12.75;;
59294;SDS011;45067;44.654;20.200;2023-09-30T00:16:32;21.05;;;12.50;;
59294;SDS011;45067;44.654;20.200;2023-09-30T00:18:59;23.63;;;11.65;;
59294;SDS011;45067;44.654;20.200;2023-09-30T00:21:27;22.35;;;12.55;;
59294;SDS011;45067;44.654;20.200;2023-09-30T00:23:53;20.90;;;12.82;;
59294;SDS011;45067;44.654;20.200;2023-09-30T00:26:19;23.50;;;11.90;;
59294;SDS011;45067;44.654;20.200;2023-09-30T00:28:47;18.83;;;12.00;;
59294;SDS011;45067;44.654;20.200;2023-09-30T00:31:13;24.55;;;12.43;;
59294;SDS011;45067;44.654;20.200;2023-09-30T00:33:39;22.45;;;13.25;;
59294;SDS011;45067;44.654;20.200;2023-09-30T00:36:08;24.92;;;12.45;;
59294;SDS011;45067;44.654;20.200;2023-09-30T00:38:35;26.45;;;13.23;;
59294;SDS011;45067;44.654;20.200;2023-09-30T00:41:01;20.88;;;13.05;;
59294;SDS011;45067;44.654;20.200;2023-09-30T00:43:27;25.40;;;12.95;;
59294;SDS011;45067;44.654;20.200;2023-09-30T00:46:00;25.67;;;12.43;;
59294;SDS011;45067;44.654;20.200;2023-09-30T00:48:28;23.27;;;12.68;;
59294;SDS011;45067;44.654;20.200;2023-09-30T00:50:54;22.45;;;13.20;;
59294;SDS011;45067;44.654;20.200;2023-09-30T00:53:22;25.80;;;13.95;;
59294;SDS011;45067;44.654;20.200;2023-09-30T00:55:48;24.38;;;13.70;;
59294;SDS011;45067;44.654;20.200;2023-09-30T00:58:14;27.95;;;14.68;;
59294;SDS011;45067;44.654;20.200;2023-09-30T01:00:40;26.20;;;15.30;;
59294;SDS011;45067;44.654;20.200;2023-09-30T01:03:07;27.15;;;13.95;;
59294;SDS011;45067;44.654;20.200;2023-09-30T01:05:33;28.75;;;15.27;;
59294;SDS011;45067;44.654;20.200;2023-09-30T01:08:01;28.50;;;15.57;;
59294;SDS011;45067;44.654;20.200;2023-09-30T01:10:28;28.08;;;16.00;;
59294;SDS011;45067;44.654;20.200;2023-09-30T01:12:54;28.77;;;16.08;;
59294;SDS011;45067;44.654;20.200;2023-09-30T01:15:20;31.67;;;15.80;;
59294;SDS011;45067;44.654;20.200;2023-09-30T01:17:46;27.50;;;17.52;;
59294;SDS011;45067;44.654;20.200;2023-09-30T01:20:12;31.17;;;17.42;;
59294;SDS011;45067;44.654;20.200;2023-09-30T01:22:44;30.17;;;16.38;;
59294;SDS011;45067;44.654;20.200;2023-09-30T01:25:10;28.08;;;15.60;;
59294;SDS011;45067;44.654;20.200;2023-09-30T01:27:36;28.95;;;15.77;;
59294;SDS011;45067;44.654;20.200;2023-09-30T01:30:02;23.20;;;14.52;;
59294;SDS011;45067;44.654;20.200;2023-09-30T01:32:29;28.25;;;14.98;;
59294;SDS011;45067;44.654;20.200;2023-09-30T01:34:55;35.97;;;15.88;;
59294;SDS011;45067;44.654;20.200;2023-09-30T01:37:21;23.65;;;14.82;;
59294;SDS011;45067;44.654;20.200;2023-09-30T01:39:47;32.45;;;14.50;;
59294;SDS011;45067;44.654;20.200;2023-09-30T01:42:15;26.65;;;14.48;;
59294;SDS011;45067;44.654;20.200;2023-09-30T01:44:41;22.25;;;13.82;;
59294;SDS011;45067;44.654;20.200;2023-09-30T01:47:07;29.13;;;14.60;;
59294;SDS011;45067;44.654;20.200;2023-09-30T01:49:34;20.40;;;13.07;;
59294;SDS011;45067;44.654;20.200;2023-09-30T01:52:00;24.33;;;12.90;;
59294;SDS011;45067;44.654;20.200;2023-09-30T01:54:26;22.63;;;12.88;;
59294;SDS011;45067;44.654;20.200;2023-09-30T01:56:52;24.50;;;12.15;;
59294;SDS011;45067;44.654;20.200;2023-09-30T01:59:18;24.60;;;12.73;;
59294;SDS011;45067;44.654;20.200;2023-09-30T02:01:44;24.63;;;12.90;;
59294;SDS011;45067;44.654;20.200;2023-09-30T02:04:13;24.13;;;12.43;;
59294;SDS011;45067;44.654;20.200;2023-09-30T02:06:42;21.10;;;11.82;;
59294;SDS011;45067;44.654;20.200;2023-09-30T02:09:08;23.02;;;12.00;;
59294;SDS011;45067;44.654;20.200;2023-09-30T02:11:35;23.35;;;12.10;;
59294;SDS011;45067;44.654;20.200;2023-09-30T02:14:02;20.30;;;11.98;;
59294;SDS011;45067;44.654;20.200;2023-09-30T02:16:30;22.73;;;12.10;;
59294;SDS011;45067;44.654;20.200;2023-09-30T02:18:58;21.50;;;11.93;;
59294;SDS011;45067;44.654;20.200;2023-09-30T02:21:24;18.52;;;11.93;;
59294;SDS011;45067;44.654;20.200;2023-09-30T02:23:50;19.45;;;11.20;;
59294;SDS011;45067;44.654;20.200;2023-09-30T02:26:20;27.90;;;11.90;;
59294;SDS011;45067;44.654;20.200;2023-09-30T02:28:46;19.80;;;11.57;;
59294;SDS011;45067;44.654;20.200;2023-09-30T02:31:12;24.52;;;11.80;;
59294;SDS011;45067;44.654;20.200;2023-09-30T02:33:38;22.13;;;11.95;;
59294;SDS011;45067;44.654;20.200;2023-09-30T02:36:08;25.25;;;11.95;;
59294;SDS011;45067;44.654;20.200;2023-09-30T02:38:37;21.77;;;13.05;;
59294;SDS011;45067;44.654;20.200;2023-09-30T02:41:03;23.35;;;12.88;;
59294;SDS011;45067;44.654;20.200;2023-09-30T02:43:30;26.42;;;12.00;;
59294;SDS011;45067;44.654;20.200;2023-09-30T02:45:56;21.20;;;12.32;;
59294;SDS011;45067;44.654;20.200;2023-09-30T02:48:22;20.77;;;12.68;;
59294;SDS011;45067;44.654;20.200;2023-09-30T02:50:48;21.73;;;12.00;;
59294;SDS011;45067;44.654;20.200;2023-09-30T02:53:14;25.35;;;12.32;;
59294;SDS011;45067;44.654;20.200;2023-09-30T02:55:40;20.80;;;10.68;;
59294;SDS011;45067;44.654;20.200;2023-09-30T02:58:07;18.70;;;12.23;;
59294;SDS011;45067;44.654;20.200;2023-09-30T03:00:34;20.67;;;13.57;;
59294;SDS011;45067;44.654;20.200;2023-09-30T03:03:01;21.60;;;13.13;;
59294;SDS011;45067;44.654;20.200;2023-09-30T03:05:27;21.50;;;12.43;;
59294;SDS011;45067;44.654;20.200;2023-09-30T03:07:55;24.02;;;12.70;;
59294;SDS011;45067;44.654;20.200;2023-09-30T03:10:22;20.73;;;12.57;;
59294;SDS011;45067;44.654;20.200;2023-09-30T03:12:58;23.10;;;12.35;;
59294;SDS011;45067;44.654;20.200;2023-09-30T03:15:27;20.90;;;12.52;;
59294;SDS011;45067;44.654;20.200;2023-09-30T03:17:55;18.05;;;11.80;;
59294;SDS011;45067;44.654;20.200;2023-09-30T03:20:22;26.27;;;12.77;;
59294;SDS011;45067;44.654;20.200;2023-09-30T03:22:50;24.92;;;13.18;;
59294;SDS011;45067;44.654;20.200;2023-09-30T03:25:19;21.75;;;13.68;;
59294;SDS011;45067;44.654;20.200;2023-09-30T03:27:45;24.02;;;13.88;;
59294;SDS011;45067;44.654;20.200;2023-09-30T03:30:12;22.10;;;12.88;;
59294;SDS011;45067;44.654;20.200;2023-09-30T03:32:38;18.83;;;12.00;;
59294;SDS011;45067;44.654;20.200;2023-09-30T03:35:05;21.20;;;12.85;;
59294;SDS011;45067;44.654;20.200;2023-09-30T03:37:32;21.10;;;13.02;;
59294;SDS011;45067;44.654;20.200;2023-09-30T03:39:59;22.25;;;13.70;;
59294;SDS011;45067;44.654;20.200;2023-09-30T03:42:36;24.92;;;13.20;;
59294;SDS011;45067;44.654;20.200;2023-09-30T03:45:04;23.60;;;13.45;;
59294;SDS011;45067;44.654;20.200;2023-09-30T03:47:32;23.90;;;14.00;;
59294;SDS011;45067;44.654;20.200;2023-09-30T03:49:58;23.65;;;13.93;;
59294;SDS011;45067;44.654;20.200;2023-09-30T03:52:24;22.13;;;13.88;;
59294;SDS011;45067;44.654;20.200;2023-09-30T03:54:51;24.85;;;14.27;;
59294;SDS011;45067;44.654;20.200;2023-09-30T03:57:18;28.83;;;15.40;;
59294;SDS011;45067;44.654;20.200;2023-09-30T03:59:44;24.35;;;13.68;;
59294;SDS011;45067;44.654;20.200;2023-09-30T04:02:13;21.75;;;12.90;;
59294;SDS011;45067;44.654;20.200;2023-09-30T04:04:40;22.58;;;12.75;;
59294;SDS011;45067;44.654;20.200;2023-09-30T04:07:06;26.77;;;13.30;;
59294;SDS011;45067;44.654;20.200;2023-09-30T04:09:35;27.63;;;13.05;;
59294;SDS011;45067;44.654;20.200;2023-09-30T04:12:01;22.63;;;13.63;;
59294;SDS011;45067;44.654;20.200;2023-09-30T04:14:27;19.20;;;13.30;;
59294;SDS011;45067;44.654;20.200;2023-09-30T04:16:53;22.25;;;13.40;;
59294;SDS011;45067;44.654;20.200;2023-09-30T04:19:19;22.20;;;13.23;;
59294;SDS011;45067;44.654;20.200;2023-09-30T04:21:46;21.23;;;13.00;;
59294;SDS011;45067;44.654;20.200;2023-09-30T04:24:12;24.42;;;13.73;;
59294;SDS011;45067;44.654;20.200;2023-09-30T04:26:38;19.63;;;12.88;;
59294;SDS011;45067;44.654;20.200;2023-09-30T04:29:06;24.13;;;14.52;;
59294;SDS011;45067;44.654;20.200;2023-09-30T04:31:35;22.73;;;13.77;;
59294;SDS011;45067;44.654;20.200;2023-09-30T04:34:03;22.65;;;13.02;;
59294;SDS011;45067;44.654;20.200;2023-09-30T04:36:29;33.92;;;14.63;;
59294;SDS011;45067;44.654;20.200;2023-09-30T04:38:56;25.17;;;12.40;;
59294;SDS011;45067;44.654;20.200;2023-09-30T04:41:26;24.40;;;13.48;;
59294;SDS011;45067;44.654;20.200;2023-09-30T04:43:52;27.77;;;13.70;;
59294;SDS011;45067;44.654;20.200;2023-09-30T04:46:18;18.20;;;12.23;;
59294;SDS011;45067;44.654;20.200;2023-09-30T04:48:45;22.27;;;13.45;;
59294;SDS011;45067;44.654;20.200;2023-09-30T04:51:13;19.58;;;12.75;;
59294;SDS011;45067;44.654;20.200;2023-09-30T04:53:43;18.02;;;12.38;;
59294;SDS011;45067;44.654;20.200;2023-09-30T04:56:11;18.23;;;11.32;;
59294;SDS011;45067;44.654;20.200;2023-09-30T04:58:37;19.25;;;11.77;;
59294;SDS011;45067;44.654;20.200;2023-09-30T05:01:03;21.30;;;11.30;;
59294;SDS011;45067;44.654;20.200;2023-09-30T05:03:33;20.23;;;11.90;;
59294;SDS011;45067;44.654;20.200;2023-09-30T05:06:00;20.48;;;11.98;;
59294;SDS011;45067;44.654;20.200;2023-09-30T05:08:26;17.85;;;11.25;;
59294;SDS011;45067;44.654;20.200;2023-09-30T05:10:53;17.33;;;10.60;;
59294;SDS011;45067;44.654;20.200;2023-09-30T05:13:20;22.63;;;12.68;;
59294;SDS011;45067;44.654;20.200;2023-09-30T05:15:48;21.40;;;11.65;;
59294;SDS011;45067;44.654;20.200;2023-09-30T05:18:15;19.30;;;11.48;;
59294;SDS011;45067;44.654;20.200;2023-09-30T05:20:41;17.73;;;11.48;;
59294;SDS011;45067;44.654;20.200;2023-09-30T05:23:07;17.88;;;10.00;;
59294;SDS011;45067;44.654;20.200;2023-09-30T05:25:33;22.52;;;11.70;;
59294;SDS011;45067;44.654;20.200;2023-09-30T05:27:59;19.10;;;11.23;;
59294;SDS011;45067;44.654;20.200;2023-09-30T05:30:26;22.27;;;11.48;;
59294;SDS011;45067;44.654;20.200;2023-09-30T05:32:52;16.88;;;11.50;;
59294;SDS011;45067;44.654;20.200;2023-09-30T05:35:19;21.00;;;12.05;;
59294;SDS011;45067;44.654;20.200;2023-09-30T05:37:47;22.55;;;12.18;;
59294;SDS011;45067;44.654;20.200;2023-09-30T05:40:17;21.73;;;12.57;;
59294;SDS011;45067;44.654;20.200;2023-09-30T05:42:55;30.73;;;13.77;;
59294;SDS011;45067;44.654;20.200;2023-09-30T05:45:25;23.10;;;13.15;;
59294;SDS011;45067;44.654;20.200;2023-09-30T05:47:52;22.00;;;13.70;;
59294;SDS011;45067;44.654;20.200;2023-09-30T05:50:20;22.42;;;13.73;;
59294;SDS011;45067;44.654;20.200;2023-09-30T05:52:52;28.27;;;14.65;;
59294;SDS011;45067;44.654;20.200;2023-09-30T05:55:20;27.10;;;15.70;;
59294;SDS011;45067;44.654;20.200;2023-09-30T05:57:47;27.25;;;15.52;;
59294;SDS011;45067;44.654;20.200;2023-09-30T06:00:14;24.00;;;14.57;;
59294;SDS011;45067;44.654;20.200;2023-09-30T06:03:01;23.02;;;15.15;;
59294;SDS011;45067;44.654;20.200;2023-09-30T06:05:30;21.77;;;14.32;;
59294;SDS011;45067;44.654;20.200;2023-09-30T06:07:56;24.05;;;14.38;;
59294;SDS011;45067;44.654;20.200;2023-09-30T06:10:23;27.38;;;14.82;;
59294;SDS011;45067;44.654;20.200;2023-09-30T06:12:51;27.13;;;14.90;;
59294;SDS011;45067;44.654;20.200;2023-09-30T06:15:20;21.50;;;14.77;;
59294;SDS011;45067;44.654;20.200;2023-09-30T06:17:51;25.92;;;14.88;;
59294;SDS011;45067;44.654;20.200;2023-09-30T06:20:17;25.17;;;15.00;;
59294;SDS011;45067;44.654;20.200;2023-09-30T06:22:44;23.08;;;13.80;;
59294;SDS011;45067;44.654;20.200;2023-09-30T06:25:13;31.80;;;14.70;;
59294;SDS011;45067;44.654;20.200;2023-09-30T06:30:07;27.55;;;15.23;;
59294;SDS011;45067;44.654;20.200;2023-09-30T06:32:34;31.70;;;15.45;;
59294;SDS011;45067;44.654;20.200;2023-09-30T06:35:01;30.63;;;16.08;;
59294;SDS011;45067;44.654;20.200;2023-09-30T06:37:28;26.20;;;15.35;;
59294;SDS011;45067;44.654;20.200;2023-09-30T06:39:54;22.75;;;14.90;;
59294;SDS011;45067;44.654;20.200;2023-09-30T06:42:21;25.45;;;14.52;;
59294;SDS011;45067;44.654;20.200;2023-09-30T06:44:47;23.25;;;15.68;;
59294;SDS011;45067;44.654;20.200;2023-09-30T06:47:14;27.73;;;14.85;;
59294;SDS011;45067;44.654;20.200;2023-09-30T06:49:40;24.20;;;14.48;;
59294;SDS011;45067;44.654;20.200;2023-09-30T06:52:06;25.67;;;14.38;;
59294;SDS011;45067;44.654;20.200;2023-09-30T06:54:32;29.25;;;14.27;;
59294;SDS011;45067;44.654;20.200;2023-09-30T06:56:58;22.67;;;14.48;;
59294;SDS011;45067;44.654;20.200;2023-09-30T06:59:25;23.85;;;14.18;;
59294;SDS011;45067;44.654;20.200;2023-09-30T07:01:51;22.88;;;14.70;;
59294;SDS011;45067;44.654;20.200;2023-09-30T07:04:17;27.25;;;14.63;;
59294;SDS011;45067;44.654;20.200;2023-09-30T07:06:43;23.77;;;14.48;;
59294;SDS011;45067;44.654;20.200;2023-09-30T07:09:09;24.10;;;14.35;;
59294;SDS011;45067;44.654;20.200;2023-09-30T07:11:37;25.80;;;14.90;;
59294;SDS011;45067;44.654;20.200;2023-09-30T07:14:03;32.53;;;15.02;;
59294;SDS011;45067;44.654;20.200;2023-09-30T07:16:29;22.35;;;15.05;;
59294;SDS011;45067;44.654;20.200;2023-09-30T07:18:55;24.88;;;13.35;;
59294;SDS011;45067;44.654;20.200;2023-09-30T07:21:22;26.70;;;15.00;;
59294;SDS011;45067;44.654;20.200;2023-09-30T07:23:48;19.70;;;13.32;;
59294;SDS011;45067;44.654;20.200;2023-09-30T07:26:14;24.17;;;14.45;;
59294;SDS011;45067;44.654;20.200;2023-09-30T07:28:40;25.95;;;14.18;;
59294;SDS011;45067;44.654;20.200;2023-09-30T07:31:06;25.45;;;13.60;;
59294;SDS011;45067;44.654;20.200;2023-09-30T07:33:32;24.23;;;13.73;;
59294;SDS011;45067;44.654;20.200;2023-09-30T07:35:58;23.75;;;13.93;;
59294;SDS011;45067;44.654;20.200;2023-09-30T07:38:24;20.30;;;13.60;;
59294;SDS011;45067;44.654;20.200;2023-09-30T07:40:51;22.27;;;14.02;;
59294;SDS011;45067;44.654;20.200;2023-09-30T07:43:17;28.42;;;15.05;;
59294;SDS011;45067;44.654;20.200;2023-09-30T07:45:45;22.25;;;14.75;;
59294;SDS011;45067;44.654;20.200;2023-09-30T07:48:11;25.80;;;14.90;;
59294;SDS011;45067;44.654;20.200;2023-09-30T07:50:39;26.92;;;15.50;;
59294;SDS011;45067;44.654;20.200;2023-09-30T07:53:07;27.20;;;15.90;;
59294;SDS011;45067;44.654;20.200;2023-09-30T07:55:33;26.92;;;15.13;;
59294;SDS011;45067;44.654;20.200;2023-09-30T07:57:59;25.83;;;14.30;;
59294;SDS011;45067;44.654;20.200;2023-09-30T08:00:26;23.30;;;14.80;;
59294;SDS011;45067;44.654;20.200;2023-09-30T08:02:52;21.25;;;15.95;;
59294;SDS011;45067;44.654;20.200;2023-09-30T08:05:18;25.40;;;15.52;;
59294;SDS011;45067;44.654;20.200;2023-09-30T08:07:44;27.02;;;15.93;;
59294;SDS011;45067;44.654;20.200;2023-09-30T08:10:11;24.08;;;14.57;;
59294;SDS011;45067;44.654;20.200;2023-09-30T08:12:39;23.23;;;14.07;;
59294;SDS011;45067;44.654;20.200;2023-09-30T08:15:06;23.60;;;13.18;;
59294;SDS011;45067;44.654;20.200;2023-09-30T08:17:32;24.65;;;11.80;;
59294;SDS011;45067;44.654;20.200;2023-09-30T08:19:58;15.65;;;11.18;;
59294;SDS011;45067;44.654;20.200;2023-09-30T08:22:25;19.95;;;11.43;;
59294;SDS011;45067;44.654;20.200;2023-09-30T08:24:53;22.90;;;11.50;;
59294;SDS011;45067;44.654;20.200;2023-09-30T08:27:19;20.08;;;10.45;;
59294;SDS011;45067;44.654;20.200;2023-09-30T08:29:45;23.00;;;11.35;;
59294;SDS011;45067;44.654;20.200;2023-09-30T08:32:11;18.20;;;11.23;;
59294;SDS011;45067;44.654;20.200;2023-09-30T08:34:37;18.27;;;11.32;;
59294;SDS011;45067;44.654;20.200;2023-09-30T08:37:04;23.35;;;10.65;;
59294;SDS011;45067;44.654;20.200;2023-09-30T08:39:30;19.42;;;10.25;;
59294;SDS011;45067;44.654;20.200;2023-09-30T08:41:56;21.45;;;10.60;;
59294;SDS011;45067;44.654;20.200;2023-09-30T08:44:23;15.90;;;9.98;;
59294;SDS011;45067;44.654;20.200;2023-09-30T08:46:49;17.55;;;9.88;;
59294;SDS011;45067;44.654;20.200;2023-09-30T08:49:17;18.30;;;9.98;;
59294;SDS011;45067;44.654;20.200;2023-09-30T08:51:44;17.02;;;9.77;;
59294;SDS011;45067;44.654;20.200;2023-09-30T08:54:10;15.98;;;9.10;;
59294;SDS011;45067;44.654;20.200;2023-09-30T08:56:37;17.30;;;9.80;;
59294;SDS011;45067;44.654;20.200;2023-09-30T08:59:06;17.85;;;10.30;;
59294;SDS011;45067;44.654;20.200;2023-09-30T09:01:32;17.92;;;9.75;;
59294;SDS011;45067;44.654;20.200;2023-09-30T09:03:59;19.83;;;8.88;;
59294;SDS011;45067;44.654;20.200;2023-09-30T09:06:26;16.75;;;8.98;;
59294;SDS011;45067;44.654;20.200;2023-09-30T09:08:52;16.02;;;8.95;;
59294;SDS011;45067;44.654;20.200;2023-09-30T09:11:18;13.00;;;8.25;;
59294;SDS011;45067;44.654;20.200;2023-09-30T09:13:45;16.10;;;8.48;;
59294;SDS011;45067;44.654;20.200;2023-09-30T09:16:14;18.55;;;9.90;;
59294;SDS011;45067;44.654;20.200;2023-09-30T09:18:40;14.70;;;8.52;;
59294;SDS011;45067;44.654;20.200;2023-09-30T09:21:09;15.55;;;9.90;;
59294;SDS011;45067;44.654;20.200;2023-09-30T09:23:42;17.38;;;9.65;;
59294;SDS011;45067;44.654;20.200;2023-09-30T09:26:12;17.58;;;8.80;;
59294;SDS011;45067;44.654;20.200;2023-09-30T09:28:39;16.38;;;8.63;;
59294;SDS011;45067;44.654;20.200;2023-09-30T09:31:20;12.30;;;8.18;;
59294;SDS011;45067;44.654;20.200;2023-09-30T09:33:47;11.85;;;8.40;;
59294;SDS011;45067;44.654;20.200;2023-09-30T09:36:14;20.38;;;8.45;;
59294;SDS011;45067;44.654;20.200;2023-09-30T09:38:47;17.08;;;9.68;;
59294;SDS011;45067;44.654;20.200;2023-09-30T09:41:14;15.57;;;8.30;;
59294;SDS011;45067;44.654;20.200;2023-09-30T09:43:41;14.23;;;8.65;;
59294;SDS011;45067;44.654;20.200;2023-09-30T09:46:08;16.35;;;8.13;;
59294;SDS011;45067;44.654;20.200;2023-09-30T09:48:37;12.50;;;7.70;;
59294;SDS011;45067;44.654;20.200;2023-09-30T09:51:04;17.10;;;9.15;;
59294;SDS011;45067;44.654;20.200;2023-09-30T09:53:34;14.65;;;8.15;;
59294;SDS011;45067;44.654;20.200;2023-09-30T09:56:01;16.40;;;8.27;;
59294;SDS011;45067;44.654;20.200;2023-09-30T09:58:28;13.40;;;7.57;;
59294;SDS011;45067;44.654;20.200;2023-09-30T10:00:58;17.88;;;8.10;;
59294;SDS011;45067;44.654;20.200;2023-09-30T10:03:26;13.95;;;8.10;;
59294;SDS011;45067;44.654;20.200;2023-09-30T10:05:52;16.55;;;8.20;;
59294;SDS011;45067;44.654;20.200;2023-09-30T10:08:18;16.67;;;7.60;;
59294;SDS011;45067;44.654;20.200;2023-09-30T10:10:46;19.25;;;8.20;;
59294;SDS011;45067;44.654;20.200;2023-09-30T10:15:57;16.00;;;8.20;;
59294;SDS011;45067;44.654;20.200;2023-09-30T10:18:23;13.32;;;7.47;;
59294;SDS011;45067;44.654;20.200;2023-09-30T10:20:49;22.63;;;11.55;;
59294;SDS011;45067;44.654;20.200;2023-09-30T10:23:20;18.95;;;9.00;;
59294;SDS011;45067;44.654;20.200;2023-09-30T10:25:47;17.55;;;7.93;;
59294;SDS011;45067;44.654;20.200;2023-09-30T10:31:09;17.90;;;9.15;;
59294;SDS011;45067;44.654;20.200;2023-09-30T10:34:12;21.17;;;11.93;;
59294;SDS011;45067;44.654;20.200;2023-09-30T10:36:34;15.80;;;10.35;;
59294;SDS011;45067;44.654;20.200;2023-09-30T10:39:05;20.85;;;9.35;;
59294;SDS011;45067;44.654;20.200;2023-09-30T10:51:43;17.92;;;10.68;;
59294;SDS011;45067;44.654;20.200;2023-09-30T10:54:12;16.15;;;9.32;;
59294;SDS011;45067;44.654;20.200;2023-09-30T10:56:38;14.57;;;7.18;;
59294;SDS011;45067;44.654;20.200;2023-09-30T10:59:07;12.80;;;7.15;;
59294;SDS011;45067;44.654;20.200;2023-09-30T11:01:34;14.50;;;9.07;;
59294;SDS011;45067;44.654;20.200;2023-09-30T11:04:01;18.20;;;9.20;;
59294;SDS011;45067;44.654;20.200;2023-09-30T11:06:29;14.05;;;8.55;;
59294;SDS011;45067;44.654;20.200;2023-09-30T11:08:58;15.00;;;8.57;;
59294;SDS011;45067;44.654;20.200;2023-09-30T11:16:48;12.02;;;7.30;;
59294;SDS011;45067;44.654;20.200;2023-09-30T11:19:14;26.42;;;17.40;;
59294;SDS011;45067;44.654;20.200;2023-09-30T11:21:40;13.13;;;9.85;;
59294;SDS011;45067;44.654;20.200;2023-09-30T11:24:08;19.98;;;9.05;;
59294;SDS011;45067;44.654;20.200;2023-09-30T11:26:34;17.52;;;11.55;;
59294;SDS011;45067;44.654;20.200;2023-09-30T11:29:11;15.52;;;8.00;;
59294;SDS011;45067;44.654;20.200;2023-09-30T11:31:38;17.70;;;12.00;;
59294;SDS011;45067;44.654;20.200;2023-09-30T11:34:04;18.40;;;11.65;;
59294;SDS011;45067;44.654;20.200;2023-09-30T11:36:31;17.63;;;12.45;;
59294;SDS011;45067;44.654;20.200;2023-09-30T11:38:57;17.15;;;9.20;;
59294;SDS011;45067;44.654;20.200;2023-09-30T11:41:32;13.27;;;7.70;;
59294;SDS011;45067;44.654;20.200;2023-09-30T11:44:16;15.77;;;8.23;;
59294;SDS011;45067;44.654;20.200;2023-09-30T11:46:58;15.30;;;8.48;;
59294;SDS011;45067;44.654;20.200;2023-09-30T11:49:27;12.15;;;8.35;;
59294;SDS011;45067;44.654;20.200;2023-09-30T11:51:53;12.18;;;8.27;;
59294;SDS011;45067;44.654;20.200;2023-09-30T11:54:20;17.80;;;10.20;;
59294;SDS011;45067;44.654;20.200;2023-09-30T11:56:47;11.80;;;8.85;;
59294;SDS011;45067;44.654;20.200;2023-09-30T11:59:15;13.10;;;7.68;;
59294;SDS011;45067;44.654;20.200;2023-09-30T12:01:41;12.27;;;7.30;;
59294;SDS011;45067;44.654;20.200;2023-09-30T12:04:08;13.32;;;7.10;;
59294;SDS011;45067;44.654;20.200;2023-09-30T12:06:35;12.27;;;7.97;;
59294;SDS011;45067;44.654;20.200;2023-09-30T12:09:03;13.10;;;7.22;;
59294;SDS011;45067;44.654;20.200;2023-09-30T12:11:29;11.45;;;6.80;;
59294;SDS011;45067;44.654;20.200;2023-09-30T12:13:55;11.15;;;7.40;;
59294;SDS011;45067;44.654;20.200;2023-09-30T12:16:21;9.52;;;6.60;;
59294;SDS011;45067;44.654;20.200;2023-09-30T12:18:48;10.63;;;6.80;;
59294;SDS011;45067;44.654;20.200;2023-09-30T12:21:14;16.38;;;7.82;;
59294;SDS011;45067;44.654;20.200;2023-09-30T12:23:45;12.10;;;7.38;;
59294;SDS011;45067;44.654;20.200;2023-09-30T12:26:11;11.35;;;7.60;;
59294;SDS011;45067;44.654;20.200;2023-09-30T12:28:37;11.95;;;7.45;;
59294;SDS011;45067;44.654;20.200;2023-09-30T12:31:05;12.38;;;7.43;;
59294;SDS011;45067;44.654;20.200;2023-09-30T12:33:32;12.75;;;8.07;;
59294;SDS011;45067;44.654;20.200;2023-09-30T12:35:59;14.43;;;8.52;;
59294;SDS011;45067;44.654;20.200;2023-09-30T12:38:25;10.95;;;8.90;;
59294;SDS011;45067;44.654;20.200;2023-09-30T12:40:53;13.27;;;9.23;;
59294;SDS011;45067;44.654;20.200;2023-09-30T12:43:20;9.93;;;8.82;;
59294;SDS011;45067;44.654;20.200;2023-09-30T12:45:46;14.75;;;9.23;;
59294;SDS011;45067;44.654;20.200;2023-09-30T12:48:13;17.60;;;10.30;;
59294;SDS011;45067;44.654;20.200;2023-09-30T12:50:39;12.02;;;9.60;;
59294;SDS011;45067;44.654;20.200;2023-09-30T12:53:05;11.65;;;8.55;;
59294;SDS011;45067;44.654;20.200;2023-09-30T12:55:32;10.65;;;7.15;;
59294;SDS011;45067;44.654;20.200;2023-09-30T12:57:58;13.68;;;9.48;;
59294;SDS011;45067;44.654;20.200;2023-09-30T13:00:27;11.60;;;9.50;;
59294;SDS011;45067;44.654;20.200;2023-09-30T13:02:56;16.52;;;10.90;;
59294;SDS011;45067;44.654;20.200;2023-09-30T13:05:35;14.82;;;10.15;;
59294;SDS011;45067;44.654;20.200;2023-09-30T13:08:01;12.93;;;10.50;;
59294;SDS011;45067;44.654;20.200;2023-09-30T13:10:27;10.73;;;8.40;;
59294;SDS011;45067;44.654;20.200;2023-09-30T13:12:55;14.38;;;10.50;;
59294;SDS011;45067;44.654;20.200;2023-09-30T13:15:21;13.60;;;9.75;;
59294;SDS011;45067;44.654;20.200;2023-09-30T13:17:49;18.67;;;10.77;;
59294;SDS011;45067;44.654;20.200;2023-09-30T13:20:15;17.20;;;8.40;;
59294;SDS011;45067;44.654;20.200;2023-09-30T13:22:42;11.82;;;9.88;;
59294;SDS011;45067;44.654;20.200;2023-09-30T13:25:08;16.60;;;9.15;;
59294;SDS011;45067;44.654;20.200;2023-09-30T13:27:37;13.65;;;9.60;;
59294;SDS011;45067;44.654;20.200;2023-09-30T13:30:05;15.48;;;9.85;;
59294;SDS011;45067;44.654;20.200;2023-09-30T13:32:32;13.70;;;9.50;;
59294;SDS011;45067;44.654;20.200;2023-09-30T13:35:02;12.02;;;9.10;;
59294;SDS011;45067;44.654;20.200;2023-09-30T13:37:29;12.13;;;10.35;;
59294;SDS011;45067;44.654;20.200;2023-09-30T13:39:58;11.93;;;8.90;;
59294;SDS011;45067;44.654;20.200;2023-09-30T13:42:24;11.15;;;8.73;;
59294;SDS011;45067;44.654;20.200;2023-09-30T13:44:50;17.65;;;8.85;;
59294;SDS011;45067;44.654;20.200;2023-09-30T13:47:16;12.68;;;9.00;;
59294;SDS011;45067;44.654;20.200;2023-09-30T13:49:46;14.63;;;9.25;;
59294;SDS011;45067;44.654;20.200;2023-09-30T13:52:12;10.68;;;8.65;;
59294;SDS011;45067;44.654;20.200;2023-09-30T13:54:38;13.40;;;7.95;;
59294;SDS011;45067;44.654;20.200;2023-09-30T13:57:05;16.25;;;7.80;;
59294;SDS011;45067;44.654;20.200;2023-09-30T13:59:33;18.13;;;9.43;;
59294;SDS011;45067;44.654;20.200;2023-09-30T14:04:25;15.13;;;9.60;;
59294;SDS011;45067;44.654;20.200;2023-09-30T14:06:52;12.15;;;9.57;;
59294;SDS011;45067;44.654;20.200;2023-09-30T14:09:18;15.93;;;8.93;;
59294;SDS011;45067;44.654;20.200;2023-09-30T14:11:44;12.88;;;7.90;;
59294;SDS011;45067;44.654;20.200;2023-09-30T14:14:10;11.10;;;7.45;;
59294;SDS011;45067;44.654;20.200;2023-09-30T14:16:36;12.55;;;7.43;;
59294;SDS011;45067;44.654;20.200;2023-09-30T14:19:02;11.25;;;7.32;;
59294;SDS011;45067;44.654;20.200;2023-09-30T14:21:28;12.23;;;7.20;;
59294;SDS011;45067;44.654;20.200;2023-09-30T14:23:57;16.63;;;8.17;;
59294;SDS011;45067;44.654;20.200;2023-09-30T14:26:23;12.88;;;7.90;;
59294;SDS011;45067;44.654;20.200;2023-09-30T14:28:49;13.40;;;7.18;;
59294;SDS011;45067;44.654;20.200;2023-09-30T14:31:16;12.85;;;7.50;;
59294;SDS011;45067;44.654;20.200;2023-09-30T14:33:42;12.32;;;8.52;;
59294;SDS011;45067;44.654;20.200;2023-09-30T14:36:08;13.27;;;7.88;;
59294;SDS011;45067;44.654;20.200;2023-09-30T14:38:34;14.05;;;8.20;;
59294;SDS011;45067;44.654;20.200;2023-09-30T14:41:05;10.75;;;7.60;;